Time;durP1;ratioP1;P1;durP2;ratioP2;P2;SDS_P1;SDS_P2;PMS_P1;PMS_P2;Temp;Humidity;BMP_temperature;BMP_pressure;BME280_temperature;BME280_humidity;BME280_pressure;Samples;Min_cycle;Max_cycle;Signal;HPM_P1;HPM_P2
2021/04/14 00:00:36;;;;;;;78.68;44.75;;;;;;;13.27;80.76;99636.47;5034537;28;20041;-66
2021/04/14 00:03:02;;;;;;;;;;;;;;;13.42;79.57;99639.97;5036565;28;20025;-67
2021/04/14 00:05:33;;;;;;;84.78;44.55;;;;;;;13.34;80.16;99626.75;5029622;28;19921;-66
2021/04/14 00:07:59;;;;;;;82.88;42.85;;;;;;;13.37;79.64;99623.75;5032252;28;20028;-67
2021/04/14 00:10:28;;;;;;;74.72;43.38;;;;;;;13.47;79.75;99626.13;5029072;28;20088;-66
2021/04/14 00:12:53;;;;;;;76.57;44.95;;;;;;;13.41;80.10;99619.69;5032828;28;20028;-66
2021/04/14 00:15:30;;;;;;;75.60;43.63;;;;;;;13.42;79.79;99613.38;5031402;28;20033;-67
2021/04/14 00:17:56;;;;;;;85.95;46.58;;;;;;;13.45;80.12;99614.84;5033295;28;20054;-66
2021/04/14 00:20:22;;;;;;;82.43;43.67;;;;;;;13.42;80.00;99620.53;5038430;28;20064;-67
2021/04/14 00:22:47;;;;;;;80.65;46.25;;;;;;;13.25;80.59;99621.72;5030538;28;20049;-66
2021/04/14 00:25:16;;;;;;;75.90;43.45;;;;;;;13.23;81.17;99624.56;5028200;28;20052;-66
2021/04/14 00:27:42;;;;;;;71.80;41.83;;;;;;;13.31;80.76;99635.09;5025675;28;20029;-67
2021/04/14 00:30:09;;;;;;;72.72;42.30;;;;;;;13.31;80.56;99621.81;5033079;28;20037;-67
2021/04/14 00:32:35;;;;;;;78.47;43.40;;;;;;;13.35;80.25;99632.91;5036287;28;20025;-67
2021/04/14 00:35:00;;;;;;;71.72;41.40;;;;;;;13.39;79.96;99632.34;5039327;28;20048;-66
2021/04/14 00:37:26;;;;;;;66.88;40.83;;;;;;;13.53;77.81;99628.09;5041458;28;20349;-66
2021/04/14 00:39:51;;;;;;;66.65;39.80;;;;;;;13.25;78.07;99619.06;5038646;28;20041;-66
2021/04/14 00:42:17;;;;;;;78.45;43.30;;;;;;;12.77;80.56;99605.19;5029619;28;20026;-66
2021/04/14 00:44:42;;;;;;;69.15;40.00;;;;;;;12.56;80.68;99620.97;5038826;28;20033;-66
2021/04/14 00:47:08;;;;;;;64.03;39.63;;;;;;;12.37;81.70;99608.97;5041480;28;20092;-67
2021/04/14 00:49:33;;;;;;;68.80;42.38;;;;;;;12.47;82.63;99614.88;5034054;28;20092;-66
2021/04/14 00:51:59;;;;;;;74.70;44.58;;;;;;;12.56;82.99;99616.50;5031933;28;20072;-67
2021/04/14 00:54:24;;;;;;;81.75;46.10;;;;;;;12.49;83.19;99612.06;5041005;28;20100;-66
2021/04/14 00:56:50;;;;;;;84.72;46.38;;;;;;;12.33;84.62;99612.97;5041407;28;20096;-66
2021/04/14 00:59:15;;;;;;;75.85;45.03;;;;;;;12.40;84.56;99605.97;5029125;28;20279;-67
2021/04/14 01:01:40;;;;;;;83.32;49.15;;;;;;;12.40;84.21;99598.00;5029572;28;20100;-67
2021/04/14 01:04:06;;;;;;;79.18;48.17;;;;;;;12.36;85.50;99594.03;5028203;28;20429;-66
2021/04/14 01:06:31;;;;;;;86.30;48.13;;;;;;;12.50;84.96;99590.66;5029120;28;20033;-67
2021/04/14 01:08:58;;;;;;;92.38;50.22;;;;;;;12.50;85.79;99590.66;5026710;28;20097;-67
2021/04/14 01:11:26;;;;;;;77.43;44.90;;;;;;;12.71;84.19;99593.47;5023440;28;20024;-67
2021/04/14 01:13:52;;;;;;;78.97;44.88;;;;;;;12.86;83.24;99580.19;5032822;28;20033;-67
2021/04/14 01:16:17;;;;;;;87.95;47.80;;;;;;;13.08;82.93;99592.59;5030925;28;20040;-66
2021/04/14 01:18:43;;;;;;;72.53;43.78;;;;;;;13.14;81.47;99584.91;5033184;28;20049;-66
2021/04/14 01:21:42;;;;;;;74.40;42.83;;;;;;;13.28;80.49;99584.13;5038563;28;20342;-66
2021/04/14 01:24:14;;;;;;;75.63;43.58;;;;;;;13.38;79.30;99582.84;5028770;28;20059;-66
2021/04/14 01:26:40;;;;;;;72.82;43.97;;;;;;;13.29;79.54;99580.47;5036945;28;20048;-66
2021/04/14 01:29:07;;;;;;;73.82;42.88;;;;;;;13.18;80.52;99580.91;5041391;28;20109;-66
2021/04/14 01:31:33;;;;;;;68.63;41.30;;;;;;;13.14;80.61;99584.91;5031959;28;20029;-67
2021/04/14 01:34:09;;;;;;;75.10;44.00;;;;;;;13.20;80.13;99585.03;5029826;28;20040;-67
2021/04/14 01:36:35;;;;;;;74.55;41.97;;;;;;;13.26;78.84;99563.03;5028379;28;20038;-67
2021/04/14 01:39:00;;;;;;;66.85;40.30;;;;;;;13.04;79.22;99567.41;5042008;28;20268;-67
2021/04/14 01:41:26;;;;;;;68.93;41.47;;;;;;;12.62;80.59;99562.66;5035140;28;20017;-66
2021/04/14 01:43:52;;;;;;;70.25;42.13;;;;;;;12.44;81.76;99559.47;5030703;28;20029;-66
2021/04/14 01:46:18;;;;;;;68.00;43.45;;;;;;;12.01;83.58;99556.44;5036822;28;20020;-66
2021/04/14 01:48:44;;;;;;;73.25;45.35;;;;;;;11.89;84.86;99549.06;5029535;28;20480;-66
2021/04/14 01:51:10;;;;;;;81.22;46.00;;;;;;;11.72;86.06;99558.91;5026867;28;20036;-66
2021/04/14 01:53:35;;;;;;;85.95;48.00;;;;;;;11.71;86.81;99550.13;5030920;28;20230;-66
2021/04/14 01:56:01;;;;;;;82.05;48.75;;;;;;;11.73;86.51;99545.47;5029994;28;20039;-66
2021/04/14 01:58:29;;;;;;;84.18;49.03;;;;;;;11.56;87.20;99543.91;5035036;28;20037;-67
2021/04/14 02:00:59;;;;;;;81.60;47.42;;;;;;;11.51;87.03;99535.66;5034687;28;20040;-66
2021/04/14 02:03:27;;;;;;;81.13;47.15;;;;;;;11.53;87.37;99536.31;5040645;28;20088;-67
2021/04/14 02:05:53;;;;;;;76.32;45.63;;;;;;;11.77;86.19;99540.66;5031168;28;20048;-67
2021/04/14 02:08:20;;;;;;;82.25;45.15;;;;;;;11.91;83.87;99528.50;5030822;28;20347;-67
2021/04/14 02:10:46;;;;;;;182.32;49.13;;;;;;;11.72;84.63;99521.78;5022889;28;20034;-66
2021/04/14 02:13:18;;;;;;;117.80;48.75;;;;;;;11.56;86.54;99530.66;5035106;28;20041;-67
2021/04/14 02:15:44;;;;;;;227.55;49.97;;;;;;;11.60;86.22;99537.25;5027368;28;20056;-66
2021/04/14 02:18:10;;;;;;;266.83;51.65;;;;;;;11.64;86.25;99543.88;5027061;28;20058;-67
2021/04/14 02:20:36;;;;;;;123.80;46.17;;;;;;;11.82;85.01;99541.81;5025752;28;20358;-66
2021/04/14 02:23:32;;;;;;;330.25;47.53;;;;;;;11.83;83.41;99546.13;5029109;28;20040;-67
2021/04/14 02:26:00;;;;;;;174.00;45.80;;;;;;;11.76;84.68;99555.75;5019683;28;20048;-66
2021/04/14 02:28:26;;;;;;;165.48;45.58;;;;;;;11.80;85.21;99550.94;5029008;28;20104;-67
2021/04/14 02:30:52;;;;;;;260.92;46.60;;;;;;;11.85;84.31;99545.94;5030182;28;20029;-67
2021/04/14 02:33:18;;;;;;;73.20;37.78;;;;;;;11.94;83.60;99538.75;5029351;28;20327;-66
2021/04/14 02:35:44;;;;;;;107.82;39.20;;;;;;;12.03;82.32;99543.84;5022595;28;20097;-66
2021/04/14 02:38:12;;;;;;;116.65;36.78;;;;;;;12.01;82.61;99545.00;5031205;28;20252;-67
2021/04/14 02:40:37;;;;;;;84.38;38.63;;;;;;;12.08;80.96;99541.47;5030578;28;20033;-66
2021/04/14 02:43:04;;;;;;;74.93;37.85;;;;;;;11.95;81.80;99545.72;5034471;28;20040;-67
2021/04/14 02:45:33;;;;;;;113.65;39.90;;;;;;;11.95;82.91;99549.19;5039239;28;20092;-66
2021/04/14 02:47:59;;;;;;;96.03;39.75;;;;;;;11.98;82.61;99545.38;5032981;28;20049;-67
2021/04/14 02:50:25;;;;;;;124.30;45.53;;;;;;;12.02;82.92;99544.00;5037186;28;20022;-67
2021/04/14 02:52:51;;;;;;;93.13;49.05;;;;;;;11.93;83.73;99545.88;5035633;28;20017;-67
2021/04/14 02:55:18;;;;;;;96.68;52.40;;;;;;;12.03;84.46;99541.19;5042807;28;20099;-67
2021/04/14 02:57:44;;;;;;;115.82;53.63;;;;;;;12.17;84.61;99533.47;5042387;28;20040;-66
2021/04/14 03:00:11;;;;;;;106.78;44.38;;;;;;;12.06;84.20;99526.72;5034095;28;20034;-66
2021/04/14 03:02:37;;;;;;;104.53;39.72;;;;;;;11.94;83.84;99530.78;5036226;28;20022;-66
2021/04/14 03:05:05;;;;;;;106.75;41.58;;;;;;;12.04;83.73;99532.22;5035129;28;20033;-67
2021/04/14 03:07:30;;;;;;;71.57;41.88;;;;;;;12.05;84.77;99541.00;5035957;28;20040;-67
2021/04/14 03:09:56;;;;;;;79.90;43.63;;;;;;;12.23;84.32;99554.81;5035692;28;20038;-66
2021/04/14 03:12:22;;;;;;;87.47;45.33;;;;;;;12.33;84.38;99567.84;5036614;28;20033;-66
2021/04/14 03:14:47;;;;;;;100.20;49.13;;;;;;;12.19;84.82;99587.19;5031504;28;20045;-67
2021/04/14 03:17:12;;;;;;;117.13;52.85;;;;;;;12.19;84.67;99598.63;5030019;28;20373;-66
2021/04/14 03:19:38;;;;;;;98.25;50.92;;;;;;;12.12;85.15;99600.34;5029216;28;20045;-67
2021/04/14 03:22:04;;;;;;;105.75;50.60;;;;;;;12.08;85.47;99610.47;5034704;28;20105;-67
2021/04/14 03:24:30;;;;;;;95.93;45.10;;;;;;;11.98;85.39;99609.88;5038708;28;20045;-67
2021/04/14 03:26:56;;;;;;;110.90;43.97;;;;;;;11.91;85.74;99619.53;5034051;28;20100;-67
2021/04/14 03:29:22;;;;;;;123.45;43.78;;;;;;;11.88;85.93;99624.34;5035973;28;20044;-67
2021/04/14 03:31:47;;;;;;;92.60;45.13;;;;;;;11.84;86.72;99623.88;5034348;28;20030;-67
2021/04/14 03:34:13;;;;;;;100.13;47.30;;;;;;;12.01;85.88;99614.00;5033889;28;20049;-66
2021/04/14 03:36:38;;;;;;;107.65;47.75;;;;;;;12.03;85.47;99604.88;5038326;28;20037;-67
2021/04/14 03:39:05;;;;;;;116.65;47.45;;;;;;;12.04;86.19;99616.31;5033139;28;20038;-67
2021/04/14 03:41:31;;;;;;;103.65;47.15;;;;;;;12.23;85.79;99626.47;5033943;28;20046;-67
2021/04/14 03:43:56;;;;;;;107.85;47.60;;;;;;;12.20;86.50;99626.84;5037179;28;20034;-67
2021/04/14 03:46:23;;;;;;;109.47;49.65;;;;;;;12.20;85.86;99628.66;5026969;28;20026;-67
2021/04/14 03:48:49;;;;;;;123.65;48.88;;;;;;;12.27;86.86;99638.41;5036517;28;20022;-67
2021/04/14 03:51:16;;;;;;;106.05;47.00;;;;;;;12.27;86.62;99626.97;5027007;28;20040;-67
2021/04/14 03:53:43;;;;;;;109.55;48.30;;;;;;;12.32;86.44;99640.53;5032772;28;20039;-67
2021/04/14 03:56:11;;;;;;;126.72;49.17;;;;;;;12.25;86.47;99640.41;5033553;28;20025;-66
2021/04/14 03:58:39;;;;;;;120.68;49.25;;;;;;;12.33;86.60;99620.94;5031291;28;20030;-66
2021/04/14 04:01:08;;;;;;;102.10;48.05;;;;;;;12.38;86.21;99619.41;5037546;28;20033;-66
2021/04/14 04:03:33;;;;;;;93.90;44.28;;;;;;;12.41;85.61;99619.06;5037325;28;20033;-66
2021/04/14 04:05:59;;;;;;;83.82;42.13;;;;;;;12.33;85.64;99624.44;5033997;28;20089;-66
2021/04/14 04:08:24;;;;;;;73.72;37.28;;;;;;;12.21;85.60;99623.19;5034373;28;20041;-67
2021/04/14 04:10:50;;;;;;;66.32;36.20;;;;;;;12.10;85.40;99613.78;5030339;28;20025;-66
2021/04/14 04:13:16;;;;;;;60.10;32.20;;;;;;;12.08;85.29;99613.13;5033591;28;20037;-66
2021/04/14 04:15:42;;;;;;;51.50;27.63;;;;;;;12.00;85.05;99621.13;5033442;28;20036;-66
2021/04/14 04:18:08;;;;;;;48.58;26.70;;;;;;;12.05;85.66;99623.28;5031110;28;20041;-67
2021/04/14 04:20:35;;;;;;;43.28;24.75;;;;;;;12.03;84.91;99622.63;5031441;28;20039;-66
2021/04/14 04:23:01;;;;;;;46.65;25.30;;;;;;;11.93;84.96;99625.50;5037246;28;20033;-67
2021/04/14 04:25:28;;;;;;;34.75;21.63;;;;;;;11.95;85.34;99623.50;5034273;28;20033;-66
2021/04/14 04:27:54;;;;;;;46.72;22.15;;;;;;;11.93;85.75;99629.97;5027616;28;20110;-67
2021/04/14 04:30:20;;;;;;;31.08;20.08;;;;;;;12.00;84.73;99646.84;5033682;28;20076;-66
2021/04/14 04:32:46;;;;;;;42.28;19.48;;;;;;;12.03;84.81;99654.47;5031880;28;20013;-66
2021/04/14 04:35:12;;;;;;;33.90;19.60;;;;;;;12.06;84.13;99654.13;5034207;28;20052;-67
2021/04/14 04:37:37;;;;;;;32.15;17.35;;;;;;;12.03;84.01;99657.13;5031363;28;20056;-67
2021/04/14 04:40:05;;;;;;;28.27;15.73;;;;;;;11.91;83.92;99656.69;5031806;28;20045;-67
2021/04/14 04:42:30;;;;;;;22.40;13.38;;;;;;;12.03;83.54;99662.44;5037063;28;20024;-66
2021/04/14 04:44:55;;;;;;;21.95;12.57;;;;;;;11.97;83.10;99655.16;5027956;28;20315;-67
2021/04/14 04:47:21;;;;;;;18.42;9.88;;;;;;;11.95;82.64;99657.16;5030238;28;20029;-66
2021/04/14 04:49:46;;;;;;;21.80;10.07;;;;;;;12.01;82.30;99656.47;5023802;28;20343;-67
2021/04/14 04:52:12;;;;;;;15.40;9.55;;;;;;;12.12;81.63;99654.25;5030769;28;20051;-67
2021/04/14 04:54:37;;;;;;;13.77;7.70;;;;;;;12.16;80.96;99660.03;5035409;28;20311;-67
2021/04/14 04:57:03;;;;;;;14.82;8.20;;;;;;;12.12;80.22;99659.56;5030369;28;20305;-66
2021/04/14 04:59:28;;;;;;;13.88;7.78;;;;;;;12.21;80.07;99643.59;5034724;28;20583;-67
2021/04/14 05:01:56;;;;;;;9.52;5.80;;;;;;;12.28;79.41;99645.38;5031046;28;20180;-67
2021/04/14 05:04:22;;;;;;;8.60;4.43;;;;;;;12.34;78.73;99646.50;5030136;28;20099;-67
2021/04/14 05:06:48;;;;;;;8.98;4.18;;;;;;;12.46;78.35;99648.56;5030867;28;20116;-67
2021/04/14 05:09:13;;;;;;;6.28;3.75;;;;;;;12.43;78.11;99642.78;5033534;28;20260;-67
2021/04/14 05:11:39;;;;;;;9.18;4.70;;;;;;;12.42;77.34;99644.59;5027852;28;20258;-66
2021/04/14 05:14:04;;;;;;;9.88;5.45;;;;;;;12.46;77.09;99635.28;5030907;28;20036;-66
2021/04/14 05:16:30;;;;;;;12.63;7.13;;;;;;;12.66;76.42;99645.47;5029070;28;20036;-67
2021/04/14 05:18:55;;;;;;;9.27;6.13;;;;;;;12.61;77.09;99650.50;5030450;28;20064;-67
2021/04/14 05:21:21;;;;;;;18.42;9.13;;;;;;;12.62;77.65;99642.34;5040635;28;20029;-66
2021/04/14 05:23:48;;;;;;;11.70;7.03;;;;;;;12.75;76.87;99641.75;5039164;28;20021;-67
2021/04/14 05:26:16;;;;;;;12.15;7.93;;;;;;;12.82;77.19;99644.50;5042026;28;20033;-66
2021/04/14 05:28:43;;;;;;;14.02;7.65;;;;;;;12.81;77.55;99640.19;5040230;28;20037;-67
2021/04/14 05:31:09;;;;;;;12.98;7.32;;;;;;;12.69;77.83;99634.50;5035913;28;20430;-67
2021/04/14 05:33:35;;;;;;;17.00;11.75;;;;;;;12.56;77.54;99594.41;5033731;28;20045;-66
2021/04/14 05:36:00;;;;;;;10.77;7.95;;;;;;;12.84;76.90;99630.03;5034408;28;20033;-66
2021/04/14 05:38:30;;;;;;;8.52;5.90;;;;;;;12.87;77.29;99628.84;5033285;28;20042;-67
2021/04/14 05:40:57;;;;;;;8.35;5.35;;;;;;;12.90;77.29;99623.19;5035154;28;20210;-66
2021/04/14 05:43:24;;;;;;;5.88;3.92;;;;;;;12.93;76.65;99626.31;5034371;28;20096;-66
2021/04/14 05:46:02;;;;;;;9.27;5.28;;;;;;;12.97;76.78;99618.81;5034840;28;20029;-67
2021/04/14 05:48:28;;;;;;;9.80;5.65;;;;;;;12.97;76.81;99622.28;5032141;28;20025;-67
2021/04/14 05:50:56;;;;;;;7.72;4.10;;;;;;;13.05;76.43;99616.88;5034039;28;20048;-66
2021/04/14 05:53:22;;;;;;;7.82;3.95;;;;;;;13.03;77.17;99616.25;5035228;28;20105;-67
2021/04/14 05:55:47;;;;;;;9.98;5.22;;;;;;;13.10;76.88;99617.19;5034486;28;20029;-66
2021/04/14 05:58:14;;;;;;;6.60;4.03;;;;;;;12.97;76.32;99616.16;5033868;28;20036;-67
2021/04/14 06:00:39;;;;;;;15.45;8.63;;;;;;;12.89;75.94;99614.38;5034696;28;20085;-67
2021/04/14 06:03:05;;;;;;;10.70;7.72;;;;;;;12.94;76.85;99611.19;5035386;28;20033;-66
2021/04/14 06:05:30;;;;;;;11.43;4.55;;;;;;;12.85;76.92;99602.47;5039785;28;20203;-66
2021/04/14 06:07:56;;;;;;;4.65;3.00;;;;;;;12.85;76.60;99605.13;5036987;28;20045;-67
2021/04/14 06:10:23;;;;;;;5.05;2.58;;;;;;;12.69;76.41;99595.47;5035735;28;20112;-67
2021/04/14 06:12:51;;;;;;;8.68;3.30;;;;;;;12.83;76.36;99611.63;5034759;28;20017;-66
2021/04/14 06:15:20;;;;;;;8.32;5.78;;;;;;;12.92;76.63;99614.03;5037627;28;20025;-67
2021/04/14 06:17:45;;;;;;;11.93;7.60;;;;;;;12.95;77.35;99607.53;5036942;28;20105;-66
2021/04/14 06:20:14;;;;;;;10.73;6.53;;;;;;;12.89;76.96;99602.94;5041425;28;20040;-67
2021/04/14 06:22:40;;;;;;;10.30;5.88;;;;;;;12.87;76.83;99600.47;5041122;28;20030;-66
2021/04/14 06:25:07;;;;;;;10.77;5.68;;;;;;;12.85;77.09;99599.81;5036948;28;20029;-67
2021/04/14 06:27:38;;;;;;;7.53;4.72;;;;;;;12.90;77.93;99602.75;5038515;28;20032;-67
2021/04/14 06:30:05;;;;;;;6.45;3.70;;;;;;;12.80;77.39;99602.19;5037886;28;20033;-67
2021/04/14 06:32:31;;;;;;;11.25;4.03;;;;;;;12.90;77.11;99609.91;5039706;28;20029;-66
2021/04/14 06:34:56;;;;;;;7.88;4.32;;;;;;;13.03;77.02;99616.25;5036598;28;20125;-66
2021/04/14 06:37:22;;;;;;;12.95;5.85;;;;;;;12.87;76.62;99620.88;5037433;28;20552;-67
2021/04/14 06:40:01;;;;;;;17.05;7.53;;;;;;;13.18;76.60;99626.09;5040770;28;20036;-66
2021/04/14 06:43:03;;;;;;;15.35;8.52;;;;;;;13.83;76.41;99617.41;5043706;28;20037;-66
2021/04/14 06:45:30;;;;;;;18.08;11.40;;;;;;;14.74;73.99;99619.47;5043074;28;20080;-66
2021/04/14 06:48:52;;;;;;;60.38;23.17;;;;;;;15.09;72.04;99623.03;5043351;28;20097;-66
2021/04/14 06:51:57;;;;;;;19.80;10.50;;;;;;;15.32;70.22;99615.59;4983041;28;20066;-67
2021/04/14 06:54:37;;;;;;;15.93;7.40;;;;;;;15.11;71.10;99628.16;4978809;28;20042;-67
2021/04/14 06:57:07;;;;;;;4.38;3.03;;;;;;;15.13;70.76;99618.13;5032994;28;20037;-67
2021/04/14 06:59:35;;;;;;;5.35;2.50;;;;;;;14.91;69.94;99622.66;5043153;28;20029;-67
2021/04/14 07:02:03;;;;;;;4.88;2.90;;;;;;;14.67;72.37;99624.72;5043669;28;20049;-67
2021/04/14 07:04:33;;;;;;;4.18;2.80;;;;;;;14.57;70.59;99631.41;5041324;28;20355;-67
2021/04/14 07:07:01;;;;;;;6.07;3.97;;;;;;;14.17;73.76;99636.25;5042682;28;20252;-66
2021/04/14 07:09:31;;;;;;;5.63;3.58;;;;;;;14.14;74.26;99625.97;5042396;28;20029;-66
2021/04/14 07:11:58;;;;;;;6.65;3.70;;;;;;;13.79;74.96;99627.59;5043727;28;20025;-67
2021/04/14 07:14:25;;;;;;;8.68;3.58;;;;;;;14.00;74.48;99632.97;5042801;28;20092;-67
2021/04/14 07:17:04;;;;;;;2.75;1.92;;;;;;;14.01;74.38;99634.63;5043531;28;20025;-67
2021/04/14 07:20:03;;;;;;;4.38;2.00;;;;;;;14.28;73.88;99633.09;5041713;28;20067;-66
2021/04/14 07:22:31;;;;;;;3.38;1.88;;;;;;;14.26;72.56;99629.78;5043391;28;20262;-67
2021/04/14 07:25:01;;;;;;;4.32;2.00;;;;;;;14.42;72.12;99628.75;5042805;28;20063;-66
2021/04/14 07:27:37;;;;;;;3.08;1.90;;;;;;;14.94;70.02;99625.78;5042585;28;20029;-67
2021/04/14 07:30:19;;;;;;;3.28;1.80;;;;;;;14.97;68.03;99629.91;5042560;28;20211;-67
2021/04/14 07:33:03;;;;;;;2.38;1.25;;;;;;;15.29;66.83;99623.97;5042268;28;20061;-66
2021/04/14 07:35:37;;;;;;;3.35;1.38;;;;;;;15.71;67.17;99616.06;5041456;28;20039;-67
2021/04/14 07:38:24;;;;;;;4.40;1.73;;;;;;;15.52;68.19;99618.38;5042667;28;20125;-67
2021/04/14 07:41:05;;;;;;;3.55;1.45;;;;;;;15.64;65.47;99621.38;5041124;28;20021;-66
2021/04/14 07:44:01;;;;;;;3.65;1.35;;;;;;;16.04;64.92;99613.53;5043149;28;20052;-67
2021/04/14 07:46:28;;;;;;;5.50;1.40;;;;;;;16.28;62.69;99616.47;5042302;28;20315;-67
2021/04/14 07:48:57;;;;;;;2.85;1.30;;;;;;;16.53;62.74;99619.41;5041842;28;20421;-67
2021/04/14 07:51:24;;;;;;;6.03;1.60;;;;;;;16.52;61.62;99612.41;5041554;28;20044;-67
2021/04/14 07:54:05;;;;;;;3.85;1.55;;;;;;;16.69;66.00;99615.56;5042247;28;20033;-67
2021/04/14 07:56:48;;;;;;;3.55;1.58;;;;;;;16.81;62.07;99607.75;5043052;28;20049;-66
2021/04/14 07:59:37;;;;;;;3.67;1.70;;;;;;;16.89;63.82;99610.22;5042313;28;20033;-66
2021/04/14 08:02:15;;;;;;;3.58;2.13;;;;;;;16.66;62.68;99601.78;5042319;28;20056;-67
2021/04/14 08:04:45;;;;;;;3.15;1.17;;;;;;;16.61;62.97;99605.84;5041342;28;20044;-66
2021/04/14 08:07:16;;;;;;;3.00;1.30;;;;;;;17.02;61.98;99599.53;5042076;28;20037;-67
2021/04/14 08:10:00;;;;;;;1.67;1.00;;;;;;;17.38;60.65;99601.72;5041681;28;20096;-67
2021/04/14 08:12:31;;;;;;;3.22;1.40;;;;;;;17.80;59.19;99584.34;5042840;28;20045;-67
2021/04/14 08:15:14;;;;;;;3.38;1.10;;;;;;;18.00;57.18;99586.94;5041386;28;20025;-67
2021/04/14 08:17:41;;;;;;;3.08;1.20;;;;;;;17.73;57.83;99583.56;5042380;28;20045;-67
2021/04/14 08:20:26;;;;;;;2.47;0.90;;;;;;;17.42;57.90;99594.91;5041087;28;20029;-67
2021/04/14 08:22:52;;;;;;;1.77;0.90;;;;;;;17.83;58.44;99583.91;5042645;28;20037;-67
2021/04/14 08:25:31;;;;;;;2.38;0.80;;;;;;;17.75;53.76;99575.31;5041253;28;20371;-67
2021/04/14 08:27:58;;;;;;;2.35;1.30;;;;;;;17.99;56.54;99579.94;5042685;28;20107;-67
2021/04/14 08:30:25;;;;;;;4.15;1.45;;;;;;;18.24;56.37;99585.34;5040949;28;20057;-67
2021/04/14 08:32:53;;;;;;;3.03;1.00;;;;;;;18.55;55.77;99579.16;5041810;28;20021;-67
2021/04/14 08:35:27;;;;;;;2.00;1.00;;;;;;;18.61;52.51;99575.66;5040917;28;20025;-67
2021/04/14 08:38:07;;;;;;;2.47;0.80;;;;;;;18.14;52.92;99572.44;5040719;28;20315;-67
2021/04/14 08:40:47;;;;;;;2.00;0.82;;;;;;;17.90;51.95;99562.47;5040875;28;20315;-67
2021/04/14 08:43:20;;;;;;;2.03;1.00;;;;;;;18.16;55.11;99565.00;5041846;28;20036;-67
2021/04/14 08:45:46;;;;;;;1.07;0.80;;;;;;;18.31;51.61;99566.56;5041288;28;20253;-67
2021/04/14 08:48:27;;;;;;;3.58;1.42;;;;;;;18.25;51.58;99570.09;5040559;28;20071;-66
2021/04/14 08:51:04;;;;;;;2.75;1.30;;;;;;;18.51;54.28;99564.56;5040788;28;20311;-67
2021/04/14 08:53:38;;;;;;;2.05;0.85;;;;;;;18.52;53.18;99560.84;5041841;28;20022;-67
2021/04/14 08:56:05;;;;;;;2.03;0.80;;;;;;;18.42;50.15;99558.63;5040953;28;20076;-67
2021/04/14 08:58:31;;;;;;;1.85;1.13;;;;;;;18.14;51.99;99560.88;5041759;28;20018;-67
2021/04/14 09:00:58;;;;;;;4.03;1.17;;;;;;;18.59;53.42;99550.88;5040746;28;20029;-66
2021/04/14 09:03:29;;;;;;;6.28;1.48;;;;;;;18.86;50.81;99543.47;5041316;28;20396;-67
2021/04/14 09:05:55;;;;;;;2.72;1.10;;;;;;;18.70;49.22;99554.75;5040712;28;20144;-67
2021/04/14 09:08:25;;;;;;;4.07;1.45;;;;;;;18.75;50.53;99541.53;5041528;28;20033;-67
2021/04/14 09:11:05;;;;;;;6.28;1.42;;;;;;;18.87;50.70;99533.56;5040234;28;20021;-67
2021/04/14 09:13:48;;;;;;;1.85;1.00;;;;;;;19.04;49.88;99534.63;5044212;28;20036;-67
2021/04/14 09:16:57;;;;;;;5.47;1.10;;;;;;;19.00;49.07;99539.63;5040561;28;20045;-67
2021/04/14 09:19:45;;;;;;;4.13;1.15;;;;;;;19.07;50.11;99529.66;5005790;28;20036;-67
2021/04/14 09:22:13;;;;;;;2.15;0.80;;;;;;;18.83;49.11;99497.50;5040574;28;20331;-67
2021/04/14 09:24:50;;;;;;;3.05;1.23;;;;;;;18.97;50.38;99525.84;5040415;28;20037;-67
2021/04/14 09:27:37;;;;;;;3.05;1.00;;;;;;;18.84;50.96;99539.38;5040316;28;20045;-67
2021/04/14 09:30:30;;;;;;;2.70;0.90;;;;;;;18.66;50.50;99538.25;5039812;28;20262;-67
2021/04/14 09:33:05;;;;;;;3.67;1.40;;;;;;;18.44;50.88;99534.28;5041348;28;20096;-67
2021/04/14 09:35:30;;;;;;;2.08;1.00;;;;;;;17.95;49.48;99522.47;5039336;28;20116;-67
2021/04/14 09:38:25;;;;;;;1.08;0.88;;;;;;;17.90;53.15;99527.63;5041039;28;20037;-66
2021/04/14 09:40:52;;;;;;;1.90;1.10;;;;;;;18.26;52.31;99518.13;5039860;28;20026;-66
2021/04/14 09:43:41;;;;;;;4.13;1.30;;;;;;;18.32;52.52;99519.94;5040935;28;20029;-67
2021/04/14 09:46:10;;;;;;;2.22;1.13;;;;;;;17.81;52.39;99512.84;5040062;28;20044;-67
2021/04/14 09:48:47;;;;;;;1.75;1.25;;;;;;;17.82;53.11;99509.16;5040851;28;20021;-67
2021/04/14 09:51:37;;;;;;;6.82;1.33;;;;;;;17.49;53.85;99506.56;5044655;28;20066;-67
2021/04/14 09:54:14;;;;;;;5.85;1.48;;;;;;;17.72;52.55;99506.09;5036735;28;20033;-67
2021/04/14 09:56:49;;;;;;;3.10;1.33;;;;;;;17.63;53.95;99504.66;5044042;28;20105;-66
2021/04/14 09:59:22;;;;;;;2.13;1.20;;;;;;;17.97;53.99;99508.84;5043201;28;20044;-67
2021/04/14 10:01:49;;;;;;;4.43;1.45;;;;;;;18.14;54.56;99505.44;5044621;28;20188;-66
2021/04/14 10:04:22;;;;;;;1.83;1.20;;;;;;;18.30;52.33;99505.94;5044240;28;20033;-67
2021/04/14 10:06:51;;;;;;;1.65;1.27;;;;;;;18.40;53.50;99507.09;5045004;28;20033;-66
2021/04/14 10:09:25;;;;;;;3.55;1.70;;;;;;;18.56;52.75;99503.03;5043937;28;20025;-66
2021/04/14 10:11:51;;;;;;;2.03;1.48;;;;;;;18.77;53.50;99497.34;5044846;28;20038;-67
2021/04/14 10:14:24;;;;;;;2.40;1.60;;;;;;;18.49;47.80;99495.06;5043665;28;20421;-67
2021/04/14 10:16:51;;;;;;;3.92;1.77;;;;;;;18.19;47.49;99496.75;5044635;28;20053;-67
2021/04/14 10:19:30;;;;;;;5.88;1.85;;;;;;;18.12;49.63;99494.13;5043801;28;20059;-67
2021/04/14 10:21:56;;;;;;;3.40;2.03;;;;;;;18.35;48.75;99492.72;5045331;28;20025;-67
2021/04/14 10:24:22;;;;;;;5.55;2.42;;;;;;;18.46;48.40;99505.41;5043395;28;20322;-67
2021/04/14 10:26:56;;;;;;;3.88;2.42;;;;;;;18.45;48.88;99501.91;5044548;28;20260;-67
2021/04/14 10:29:26;;;;;;;2.65;1.70;;;;;;;18.39;46.93;99501.94;5043888;28;20029;-67
2021/04/14 10:31:55;;;;;;;6.57;2.15;;;;;;;18.36;46.51;99500.53;5043135;28;20071;-67
2021/04/14 10:34:27;;;;;;;5.40;2.28;;;;;;;18.29;47.29;99502.44;5043780;28;20030;-66
2021/04/14 10:36:54;;;;;;;3.55;2.38;;;;;;;18.18;49.03;99503.13;5044361;28;20096;-66
2021/04/14 10:39:25;;;;;;;11.05;2.75;;;;;;;18.37;46.49;99502.16;5042806;28;20085;-67
2021/04/14 10:41:53;;;;;;;5.05;2.22;;;;;;;18.40;48.10;99499.06;5044654;28;20391;-67
2021/04/14 10:44:22;;;;;;;6.82;2.15;;;;;;;18.52;45.85;99501.84;5041727;28;20219;-66
2021/04/14 10:46:48;;;;;;;3.42;2.20;;;;;;;18.38;46.53;99494.94;5035928;28;20076;-66
2021/04/14 10:49:24;;;;;;;5.13;1.92;;;;;;;18.54;46.70;99493.59;5038222;28;20064;-67
2021/04/14 10:51:53;;;;;;;4.10;1.92;;;;;;;18.11;46.27;99497.00;5037355;28;20025;-66
2021/04/14 10:54:24;;;;;;;6.18;2.30;;;;;;;18.34;46.33;99494.56;5036045;28;20037;-66
2021/04/14 10:57:04;;;;;;;5.22;2.30;;;;;;;18.32;44.47;99485.09;5032994;28;20112;-66
2021/04/14 10:59:30;;;;;;;3.20;2.10;;;;;;;18.31;46.71;99492.31;5034753;28;20902;-67
2021/04/14 11:01:56;;;;;;;2.97;2.45;;;;;;;18.43;46.07;99498.63;5041709;28;20025;-67
2021/04/14 11:04:30;;;;;;;6.03;2.58;;;;;;;18.32;45.96;99493.97;5041815;28;20267;-67
2021/04/14 11:07:01;;;;;;;7.70;2.58;;;;;;;18.35;45.46;99487.34;5035500;28;20114;-67
2021/04/14 11:09:31;;;;;;;6.72;3.08;;;;;;;18.41;46.43;99487.28;5035887;28;20045;-67
2021/04/14 11:11:59;;;;;;;7.57;2.75;;;;;;;18.06;45.99;99483.44;5038641;28;20014;-67
2021/04/14 11:14:25;;;;;;;8.93;2.80;;;;;;;17.76;47.41;99473.31;5035320;28;20033;-67
2021/04/14 11:16:52;;;;;;;4.07;2.90;;;;;;;17.55;47.20;99478.94;5035694;28;20047;-67
2021/04/14 11:19:23;;;;;;;7.82;2.72;;;;;;;17.55;49.22;99486.97;5034222;28;20389;-67
2021/04/14 11:22:03;;;;;;;7.40;3.20;;;;;;;17.88;48.09;99488.72;5040121;28;20390;-67
2021/04/14 11:24:29;;;;;;;8.05;3.28;;;;;;;17.98;47.35;99484.53;5036211;28;20030;-67
2021/04/14 11:26:58;;;;;;;5.07;3.10;;;;;;;17.90;48.40;99481.28;5036871;28;20210;-66
2021/04/14 11:29:33;;;;;;;3.20;2.70;;;;;;;18.02;47.37;99474.19;5036580;28;20223;-67
2021/04/14 11:32:03;;;;;;;5.78;2.80;;;;;;;17.95;47.57;99466.19;5037704;28;20132;-66
2021/04/14 11:34:30;;;;;;;3.78;2.85;;;;;;;17.92;48.07;99461.28;5043138;28;20235;-67
2021/04/14 11:37:29;;;;;;;5.43;2.30;;;;;;;18.02;47.04;99460.81;5043041;28;20039;-67